createdAt,value
2019-02-26T00:00:33.445Z,28.21
2019-02-26T00:01:28.712Z,28.20
2019-02-26T00:02:06.249Z,28.15
2019-02-26T00:03:04.642Z,28.13
2019-02-26T00:03:45.191Z,28.11
2019-02-26T00:04:25.483Z,28.25
2019-02-26T00:05:08.279Z,28.43
2019-02-26T00:05:56.839Z,28.59
2019-02-26T00:06:47.200Z,28.70
2019-02-26T00:07:28.143Z,28.76
2019-02-26T00:08:06.192Z,28.88
2019-02-26T00:08:49.262Z,29.00
2019-02-26T00:09:28.370Z,29.12
2019-02-26T00:11:03.815Z,29.31
2019-02-26T00:11:44.866Z,29.44
2019-02-26T00:12:44.931Z,29.54
2019-02-26T00:13:27.181Z,29.64
2019-02-26T00:14:04.589Z,29.73
2019-02-26T00:14:50.098Z,29.73
2019-02-26T00:15:35.532Z,29.63
2019-02-26T00:16:15.336Z,29.48
2019-02-26T00:16:51.610Z,29.46
2019-02-26T00:17:38.593Z,29.42
2019-02-26T00:18:16.808Z,29.38
2019-02-26T00:19:57.790Z,29.29
2019-02-26T00:20:37.400Z,29.29
2019-02-26T00:21:26.425Z,29.21
2019-02-26T00:22:03.047Z,29.26
2019-02-26T00:22:49.386Z,29.16
2019-02-26T00:23:31.658Z,29.15
2019-02-26T00:24:30.854Z,29.15
2019-02-26T00:25:10.451Z,29.13
2019-02-26T00:25:50.481Z,29.13
2019-02-26T00:26:47.639Z,29.13
2019-02-26T00:27:30.610Z,29.16
2019-02-26T00:28:15.387Z,29.14
2019-02-26T00:30:01.442Z,29.22
2019-02-26T00:30:38.694Z,29.26
2019-02-26T00:31:23.821Z,29.28
2019-02-26T00:32:02.729Z,29.25
2019-02-26T00:32:48.800Z,29.25
2019-02-26T00:33:28.980Z,29.21
2019-02-26T00:34:14.009Z,29.26
2019-02-26T00:35:01.775Z,29.26
2019-02-26T00:35:48.133Z,29.21
2019-02-26T00:36:27.191Z,29.14
2019-02-26T00:37:09.794Z,29.15
2019-02-26T00:37:53.464Z,29.21
2019-02-26T00:38:33.015Z,29.21
2019-02-26T00:39:16.056Z,29.21
2019-02-26T00:40:04.135Z,29.28
2019-02-26T00:40:43.217Z,29.36
2019-02-26T00:41:31.865Z,29.40
2019-02-26T00:42:12.364Z,29.44
2019-02-26T00:43:02.551Z,29.46
2019-02-26T00:43:53.166Z,29.51
2019-02-26T00:44:37.398Z,29.53
2019-02-26T00:45:26.938Z,29.58
2019-02-26T00:46:32.433Z,29.57
2019-02-26T00:47:15.546Z,29.59
2019-02-26T00:47:54.779Z,29.65
2019-02-26T00:48:38.853Z,29.68
2019-02-26T00:49:15.319Z,29.68
2019-02-26T00:49:59.320Z,29.72
2019-02-26T00:50:37.288Z,29.76
2019-02-26T00:51:27.706Z,29.81
2019-02-26T00:52:06.393Z,29.86
2019-02-26T00:52:46.820Z,29.88
2019-02-26T00:53:25.853Z,29.91
2019-02-26T00:54:07.336Z,29.98
2019-02-26T00:54:47.149Z,30.03
2019-02-26T00:55:48.641Z,30.12
2019-02-26T00:57:06.445Z,30.15
2019-02-26T00:57:51.852Z,30.20
2019-02-26T00:58:32.108Z,30.20
2019-02-26T00:59:11.055Z,30.24
2019-02-26T00:59:48.266Z,30.26
2019-02-26T01:00:28.516Z,30.26
2019-02-26T01:01:12.146Z,30.35
2019-02-26T01:01:59.413Z,30.35
2019-02-26T01:02:58.079Z,30.35
2019-02-26T01:03:58.405Z,30.35
2019-02-26T01:04:39.089Z,30.27
2019-02-26T01:05:18.539Z,30.44
2019-02-26T01:06:01.615Z,30.48
2019-02-26T01:06:43.701Z,30.48
2019-02-26T01:07:36.530Z,30.49
2019-02-26T01:08:19.621Z,30.49
2019-02-26T01:09:03.658Z,30.44
2019-02-26T01:10:14.001Z,30.59
2019-02-26T01:10:56.965Z,30.59
2019-02-26T01:11:34.061Z,30.63
2019-02-26T01:12:18.221Z,30.72
2019-02-26T01:13:03.029Z,30.77
2019-02-26T01:13:40.871Z,30.77
2019-02-26T01:14:18.654Z,30.82
2019-02-26T01:16:18.425Z,31.05
2019-02-26T01:18:08.346Z,31.11
2019-02-26T01:18:46.676Z,31.14
2019-02-26T01:19:34.169Z,31.19
2019-02-26T01:20:14.359Z,31.27
2019-02-26T01:20:52.673Z,31.33
2019-02-26T01:21:34.102Z,31.36
2019-02-26T01:22:14.361Z,31.35
2019-02-26T01:22:53.185Z,31.42
2019-02-26T01:23:43.796Z,31.42
2019-02-26T01:24:27.975Z,31.41
2019-02-26T01:25:07.877Z,31.33
2019-02-26T01:25:59.849Z,31.31
2019-02-26T01:26:43.499Z,31.36
2019-02-26T01:27:22.400Z,31.39
2019-02-26T01:28:00.620Z,31.44
2019-02-26T01:28:46.177Z,31.50
2019-02-26T01:29:33.016Z,31.55
2019-02-26T01:30:18.140Z,31.53
2019-02-26T01:30:56.159Z,31.58
2019-02-26T01:31:33.955Z,31.63
2019-02-26T01:32:26.468Z,31.66
2019-02-26T01:33:08.042Z,31.73
2019-02-26T01:33:55.326Z,31.81
2019-02-26T01:34:33.169Z,31.86
2019-02-26T01:35:13.072Z,31.94
2019-02-26T01:35:56.168Z,31.96
2019-02-26T01:37:05.950Z,32.01
2019-02-26T01:37:51.318Z,32.06
2019-02-26T01:38:29.108Z,32.13
2019-02-26T01:39:13.431Z,32.13
2019-02-26T01:39:53.925Z,32.16
2019-02-26T01:40:57.819Z,32.21
2019-02-26T01:41:46.079Z,32.27
2019-02-26T01:42:34.823Z,32.33
2019-02-26T01:43:18.640Z,32.38
2019-02-26T01:45:05.616Z,32.48
2019-02-26T01:45:56.787Z,32.50
2019-02-26T01:46:43.785Z,32.51
2019-02-26T01:47:54.464Z,32.51
2019-02-26T01:48:57.449Z,32.55
2019-02-26T01:49:53.387Z,32.62
2019-02-26T01:50:33.475Z,32.67
2019-02-26T01:51:52.242Z,32.68
2019-02-26T01:54:51.370Z,32.73
2019-02-26T01:55:42.099Z,32.68
2019-02-26T01:56:42.449Z,32.77
2019-02-26T01:57:27.184Z,32.83
2019-02-26T01:58:09.855Z,32.91
2019-02-26T01:59:09.190Z,32.98
2019-02-26T01:59:53.205Z,33.05
2019-02-26T02:00:38.684Z,33.11
2019-02-26T02:01:21.391Z,33.13
2019-02-26T02:03:02.327Z,33.17
2019-02-26T02:04:44.628Z,33.28
2019-02-26T02:05:33.826Z,33.29
2019-02-26T02:07:04.236Z,33.32
2019-02-26T02:08:18.487Z,33.36
2019-02-26T02:10:07.347Z,33.53
2019-02-26T02:10:56.294Z,33.52
2019-02-26T02:11:43.149Z,33.52
2019-02-26T02:13:02.877Z,33.54
2019-02-26T02:13:41.374Z,33.56
2019-02-26T02:15:20.827Z,33.58
2019-02-26T02:16:04.907Z,33.51
2019-02-26T02:16:55.928Z,33.52
2019-02-26T02:17:43.568Z,33.52
2019-02-26T02:18:23.606Z,33.57
2019-02-26T02:19:02.974Z,33.63
2019-02-26T02:19:41.720Z,33.68
2019-02-26T02:20:30.157Z,33.73
2019-02-26T02:21:33.189Z,33.80
2019-02-26T02:22:19.145Z,33.85
2019-02-26T02:22:58.164Z,33.84
2019-02-26T02:23:44.254Z,33.82
2019-02-26T02:24:31.433Z,33.81
2019-02-26T02:25:24.682Z,33.86
2019-02-26T02:26:04.462Z,33.89
2019-02-26T02:27:22.582Z,33.93
2019-02-26T02:28:26.313Z,33.87
2019-02-26T02:29:34.254Z,33.86
2019-02-26T02:30:22.386Z,33.94
2019-02-26T02:30:58.367Z,33.98
2019-02-26T02:31:58.491Z,34.04
2019-02-26T02:32:40.159Z,34.10
2019-02-26T02:33:29.356Z,34.16
2019-02-26T02:34:12.159Z,34.18
2019-02-26T02:34:53.248Z,34.26
2019-02-26T02:37:27.467Z,34.29
2019-02-26T02:38:04.987Z,34.23
2019-02-26T02:38:41.294Z,34.27
2019-02-26T02:39:26.423Z,34.26
2019-02-26T02:40:01.808Z,34.22
2019-02-26T02:40:40.278Z,34.22
2019-02-26T02:41:17.646Z,34.27
2019-02-26T02:41:56.267Z,34.29
2019-02-26T02:42:37.523Z,34.38
2019-02-26T02:43:18.069Z,34.46
2019-02-26T02:43:55.683Z,34.49
2019-02-26T02:44:32.103Z,34.55
2019-02-26T02:45:20.111Z,34.57
2019-02-26T02:45:55.744Z,34.62
2019-02-26T02:46:34.131Z,34.67
2019-02-26T02:47:11.331Z,34.71
2019-02-26T02:47:54.748Z,34.75
2019-02-26T02:48:28.856Z,34.77
2019-02-26T02:49:09.824Z,34.84
2019-02-26T02:49:50.372Z,34.90
2019-02-26T02:50:47.057Z,34.93
2019-02-26T02:51:25.757Z,34.97
2019-02-26T02:52:04.148Z,35.04
2019-02-26T02:52:41.504Z,35.10
2019-02-26T02:53:21.044Z,35.15
2019-02-26T02:54:01.035Z,35.21
2019-02-26T02:54:38.597Z,35.27
2019-02-26T02:55:19.314Z,35.32
2019-02-26T02:55:55.958Z,35.38
2019-02-26T02:56:34.068Z,35.41
2019-02-26T02:57:11.947Z,35.42
2019-02-26T02:57:50.205Z,35.42
2019-02-26T02:58:26.177Z,35.50
2019-02-26T02:59:03.458Z,35.53
2019-02-26T02:59:42.264Z,35.56
2019-02-26T03:00:39.258Z,35.59
2019-02-26T03:01:19.566Z,35.59
2019-02-26T03:01:57.107Z,35.59
2019-02-26T03:02:37.677Z,35.60
2019-02-26T03:03:11.958Z,35.66
2019-02-26T03:03:50.301Z,35.72
2019-02-26T03:04:31.185Z,35.76
2019-02-26T03:05:06.838Z,35.77
2019-02-26T03:05:47.410Z,35.80
2019-02-26T03:06:25.010Z,35.81
2019-02-26T03:07:03.106Z,35.85
2019-02-26T03:07:42.065Z,35.85
2019-02-26T03:08:19.481Z,35.90
2019-02-26T03:08:56.473Z,35.96
2019-02-26T03:09:35.374Z,35.96
2019-02-26T03:10:13.005Z,35.93
2019-02-26T03:10:49.246Z,35.93
2019-02-26T03:11:25.941Z,35.91
2019-02-26T03:12:05.564Z,35.95
2019-02-26T03:12:44.023Z,35.97
2019-02-26T03:13:22.899Z,35.94
2019-02-26T03:13:59.947Z,35.97
2019-02-26T03:14:39.182Z,35.96
2019-02-26T03:15:17.713Z,35.98
2019-02-26T03:15:56.647Z,35.97
2019-02-26T03:16:33.503Z,35.97
2019-02-26T03:17:11.074Z,35.98
2019-02-26T03:17:47.878Z,36.03
2019-02-26T03:18:25.832Z,36.04
2019-02-26T03:19:04.771Z,36.08
2019-02-26T03:19:45.299Z,36.09
2019-02-26T03:20:24.720Z,36.06
2019-02-26T03:21:04.352Z,35.96
2019-02-26T03:21:42.142Z,35.96
2019-02-26T03:22:21.609Z,35.91
2019-02-26T03:22:57.362Z,35.90
2019-02-26T03:23:37.101Z,35.95
2019-02-26T03:24:13.165Z,35.96
2019-02-26T03:24:51.277Z,35.99
2019-02-26T03:25:30.240Z,36.01
2019-02-26T03:26:09.964Z,36.07
2019-02-26T03:26:45.121Z,36.11
2019-02-26T03:27:27.793Z,36.11
2019-02-26T03:28:04.065Z,36.11
2019-02-26T03:28:42.185Z,36.05
2019-02-26T03:29:18.603Z,35.97
2019-02-26T03:29:56.273Z,35.94
2019-02-26T03:30:40.206Z,35.99
2019-02-26T03:31:17.051Z,36.01
2019-02-26T03:31:55.458Z,36.05
2019-02-26T03:32:36.070Z,36.09
2019-02-26T03:33:11.185Z,36.13
2019-02-26T03:33:47.425Z,36.11
2019-02-26T03:34:25.262Z,36.12
2019-02-26T03:35:07.146Z,36.16
2019-02-26T03:35:41.432Z,36.20
2019-02-26T03:36:19.225Z,36.25
2019-02-26T03:36:57.816Z,36.30
2019-02-26T03:37:36.581Z,36.34
2019-02-26T03:38:15.001Z,36.40
2019-02-26T03:38:54.813Z,36.43
2019-02-26T03:39:39.617Z,36.48
2019-02-26T03:40:16.447Z,36.52
2019-02-26T03:40:55.498Z,36.58
2019-02-26T03:41:31.897Z,36.64
2019-02-26T03:42:10.472Z,36.64
2019-02-26T03:42:47.639Z,36.69
2019-02-26T03:43:25.383Z,36.69
2019-02-26T03:44:08.217Z,36.73
2019-02-26T03:44:46.181Z,36.73
2019-02-26T03:45:29.849Z,36.72
2019-02-26T03:46:09.747Z,36.75
2019-02-26T03:46:47.794Z,36.76
2019-02-26T03:47:24.284Z,36.78
2019-02-26T03:48:01.475Z,36.80
2019-02-26T03:48:38.008Z,36.83
2019-02-26T03:49:16.967Z,36.87
2019-02-26T03:49:55.252Z,36.88
2019-02-26T03:50:31.499Z,36.90
2019-02-26T03:51:08.352Z,36.87
2019-02-26T03:51:45.413Z,36.92
2019-02-26T03:52:21.812Z,36.93
2019-02-26T03:52:59.001Z,36.96
2019-02-26T03:53:48.693Z,36.98
2019-02-26T03:54:25.597Z,36.98
2019-02-26T03:55:03.540Z,36.98
2019-02-26T03:55:42.028Z,36.99
2019-02-26T03:56:20.565Z,37.00
2019-02-26T03:56:57.421Z,37.01
2019-02-26T03:57:33.840Z,37.01
2019-02-26T03:58:10.179Z,37.03
2019-02-26T03:58:46.832Z,37.04
2019-02-26T03:59:24.508Z,37.04
2019-02-26T04:00:05.599Z,37.06
2019-02-26T04:00:41.704Z,37.11
2019-02-26T04:01:19.411Z,37.14
2019-02-26T04:01:57.098Z,37.18
2019-02-26T04:02:33.220Z,37.21
2019-02-26T04:03:12.477Z,37.21
2019-02-26T04:03:50.870Z,37.22
2019-02-26T04:04:28.884Z,37.18
2019-02-26T04:05:08.955Z,37.20
2019-02-26T04:05:45.963Z,37.20
2019-02-26T04:06:23.159Z,37.20
2019-02-26T04:07:01.425Z,37.18
2019-02-26T04:07:38.988Z,37.17
2019-02-26T04:08:16.678Z,37.13
2019-02-26T04:08:57.465Z,37.11
2019-02-26T04:09:39.063Z,37.11
2019-02-26T04:10:14.688Z,37.08
2019-02-26T04:10:53.626Z,37.11
2019-02-26T04:11:29.751Z,37.11
2019-02-26T04:12:08.392Z,37.11
2019-02-26T04:12:48.614Z,37.14
2019-02-26T04:13:25.986Z,37.14
2019-02-26T04:14:03.931Z,37.16
2019-02-26T04:14:40.767Z,37.20
2019-02-26T04:15:18.197Z,37.23
2019-02-26T04:15:57.102Z,37.24
2019-02-26T04:16:35.279Z,37.25
2019-02-26T04:17:11.280Z,37.27
2019-02-26T04:17:49.881Z,37.30
2019-02-26T04:18:28.774Z,37.36
2019-02-26T04:19:08.614Z,37.39
2019-02-26T04:19:44.488Z,37.43
2019-02-26T04:20:21.074Z,37.48
2019-02-26T04:21:03.164Z,37.48
2019-02-26T04:22:12.483Z,37.51
2019-02-26T04:22:49.923Z,37.52
2019-02-26T04:23:25.182Z,37.48
2019-02-26T04:24:03.522Z,37.50
2019-02-26T04:24:40.361Z,37.53
2019-02-26T04:25:59.875Z,37.55
2019-02-26T04:27:10.992Z,37.56
2019-02-26T04:27:59.920Z,37.56
2019-02-26T04:28:47.577Z,37.48
2019-02-26T04:29:49.355Z,37.47
2019-02-26T04:31:05.420Z,37.46
2019-02-26T04:32:20.372Z,37.44
2019-02-26T04:33:32.718Z,37.39
2019-02-26T04:34:26.206Z,37.34
2019-02-26T04:35:47.686Z,37.27
2019-02-26T04:36:34.356Z,37.23
2019-02-26T04:38:03.461Z,37.21
2019-02-26T04:39:34.490Z,37.10
2019-02-26T04:40:47.134Z,37.11
2019-02-26T04:41:48.710Z,37.16
2019-02-26T04:42:53.663Z,37.17
2019-02-26T04:44:26.240Z,37.16
2019-02-26T04:45:48.236Z,37.18
2019-02-26T04:46:42.927Z,37.21
2019-02-26T04:47:27.029Z,37.25
2019-02-26T04:48:03.616Z,37.27
2019-02-26T04:48:41.468Z,37.26
2019-02-26T04:49:17.760Z,37.29
2019-02-26T04:49:57.293Z,37.33
2019-02-26T04:50:35.769Z,37.30
2019-02-26T04:51:12.905Z,37.33
2019-02-26T04:51:50.585Z,37.34
2019-02-26T04:52:29.626Z,37.37
2019-02-26T04:53:28.724Z,37.35
2019-02-26T04:54:05.513Z,37.32
2019-02-26T04:54:42.615Z,37.33
2019-02-26T04:55:20.756Z,37.37
2019-02-26T04:55:59.844Z,37.43
2019-02-26T04:56:39.567Z,37.45
2019-02-26T04:57:14.719Z,37.45
2019-02-26T04:57:53.961Z,37.47
2019-02-26T04:58:31.178Z,37.49
2019-02-26T04:59:09.781Z,37.46
2019-02-26T04:59:45.516Z,37.50
2019-02-26T05:00:26.173Z,37.48
2019-02-26T05:01:04.237Z,37.51
2019-02-26T05:01:40.893Z,37.52
2019-02-26T05:02:20.549Z,37.54
2019-02-26T05:02:56.798Z,37.54
2019-02-26T05:03:33.654Z,37.58
2019-02-26T05:04:10.031Z,37.58
2019-02-26T05:04:46.489Z,37.56
2019-02-26T05:05:25.862Z,37.62
2019-02-26T05:06:05.310Z,37.62
2019-02-26T05:06:42.776Z,37.66
2019-02-26T05:07:19.637Z,37.67
2019-02-26T05:07:59.001Z,37.71
2019-02-26T05:08:37.598Z,37.73
2019-02-26T05:09:15.656Z,37.71
2019-02-26T05:09:53.854Z,37.74
2019-02-26T05:10:34.398Z,37.66
2019-02-26T05:11:14.884Z,37.60
2019-02-26T05:11:57.139Z,37.52
2019-02-26T05:12:37.296Z,37.45
2019-02-26T05:13:15.202Z,37.28
2019-02-26T05:13:54.183Z,37.25
2019-02-26T05:14:33.287Z,37.22
2019-02-26T05:15:18.059Z,37.24
2019-02-26T05:15:52.857Z,37.14
2019-02-26T05:16:32.694Z,37.19
2019-02-26T05:17:10.859Z,37.21
2019-02-26T05:17:49.787Z,37.27
2019-02-26T05:18:28.532Z,37.36
2019-02-26T05:19:05.230Z,37.44
2019-02-26T05:19:48.260Z,37.46
2019-02-26T05:20:23.407Z,37.52
2019-02-26T05:21:04.169Z,37.57
2019-02-26T05:21:38.478Z,37.59
2019-02-26T05:22:15.287Z,37.62
2019-02-26T05:22:54.758Z,37.67
2019-02-26T05:23:34.440Z,37.67
2019-02-26T05:24:13.071Z,37.72
2019-02-26T05:24:52.802Z,37.69
2019-02-26T05:25:31.487Z,37.65
2019-02-26T05:26:11.667Z,37.63
2019-02-26T05:26:46.751Z,37.59
2019-02-26T05:27:24.959Z,37.61
2019-02-26T05:28:03.670Z,37.62
2019-02-26T05:28:47.018Z,37.59
2019-02-26T05:29:22.922Z,37.61
2019-02-26T05:30:00.031Z,37.64
2019-02-26T05:30:37.789Z,37.66
2019-02-26T05:31:18.114Z,37.70
2019-02-26T05:31:55.613Z,37.70
2019-02-26T05:32:35.032Z,37.74
2019-02-26T05:33:14.113Z,37.77
2019-02-26T05:33:54.202Z,37.73
2019-02-26T05:34:32.162Z,37.75
2019-02-26T05:35:08.929Z,37.73
2019-02-26T05:35:46.244Z,37.76
2019-02-26T05:36:28.228Z,37.77
2019-02-26T05:37:08.181Z,37.79
2019-02-26T05:37:47.516Z,37.86
2019-02-26T05:38:49.297Z,37.86
2019-02-26T05:39:28.822Z,37.87
2019-02-26T05:40:09.057Z,37.86
2019-02-26T05:40:48.194Z,37.85
2019-02-26T05:41:25.689Z,37.86
2019-02-26T05:42:04.069Z,37.84
2019-02-26T05:42:40.974Z,37.81
2019-02-26T05:43:20.403Z,37.81
2019-02-26T05:44:03.495Z,37.79
2019-02-26T05:44:39.705Z,37.76
2019-02-26T05:45:16.646Z,37.78
2019-02-26T05:45:54.861Z,37.79
2019-02-26T05:46:34.094Z,37.78
2019-02-26T05:47:13.004Z,37.79
2019-02-26T05:47:51.258Z,37.81
2019-02-26T05:48:31.444Z,37.81
2019-02-26T05:49:13.239Z,37.84
2019-02-26T05:49:48.104Z,37.84
2019-02-26T05:50:24.870Z,37.81
2019-02-26T05:51:03.592Z,37.80
2019-02-26T05:51:39.510Z,37.80
2019-02-26T05:52:35.866Z,37.82
2019-02-26T05:53:18.479Z,37.83
2019-02-26T05:53:56.061Z,37.84
2019-02-26T05:54:32.283Z,37.87
2019-02-26T05:55:08.747Z,37.90
2019-02-26T05:55:48.539Z,37.93
2019-02-26T05:56:27.430Z,37.97
2019-02-26T05:57:06.570Z,38.01
2019-02-26T05:57:43.682Z,38.05
2019-02-26T05:58:21.503Z,38.07
2019-02-26T05:59:02.090Z,38.01
2019-02-26T05:59:35.881Z,38.03
2019-02-26T06:00:18.306Z,38.06
2019-02-26T06:00:55.063Z,38.05
2019-02-26T06:01:31.808Z,38.09
2019-02-26T06:02:21.641Z,38.12
2019-02-26T06:02:59.233Z,38.12
2019-02-26T06:03:38.499Z,38.15
2019-02-26T06:04:23.386Z,38.19
2019-02-26T06:04:59.951Z,38.23
2019-02-26T06:05:41.184Z,38.24
2019-02-26T06:06:15.655Z,38.29
2019-02-26T06:06:55.532Z,38.31
2019-02-26T06:07:33.365Z,38.32
2019-02-26T06:08:11.676Z,38.33
2019-02-26T06:08:49.395Z,38.31
2019-02-26T06:09:28.546Z,38.25
2019-02-26T06:10:07.074Z,38.27
2019-02-26T06:10:55.813Z,38.23
2019-02-26T06:11:36.329Z,38.20
2019-02-26T06:12:12.755Z,38.22
2019-02-26T06:12:49.156Z,38.26
2019-02-26T06:13:29.167Z,38.20
2019-02-26T06:14:20.156Z,38.19
2019-02-26T06:15:02.077Z,38.18
2019-02-26T06:15:38.541Z,38.15
2019-02-26T06:16:14.931Z,38.12
2019-02-26T06:16:55.081Z,38.16
2019-02-26T06:17:31.327Z,38.19
2019-02-26T06:18:07.823Z,38.19
2019-02-26T06:18:46.396Z,38.21
2019-02-26T06:19:37.733Z,38.25
2019-02-26T06:20:19.230Z,38.27
2019-02-26T06:20:56.706Z,38.31
2019-02-26T06:21:34.352Z,38.30
2019-02-26T06:22:14.518Z,38.32
2019-02-26T06:22:51.695Z,38.36
2019-02-26T06:23:33.804Z,38.38
2019-02-26T06:24:10.506Z,38.42
2019-02-26T06:24:49.288Z,38.43
2019-02-26T06:25:25.795Z,38.43
2019-02-26T06:26:04.910Z,38.43
2019-02-26T06:26:45.524Z,38.48
2019-02-26T06:27:27.271Z,38.43
2019-02-26T06:28:06.945Z,38.46
2019-02-26T06:28:43.470Z,38.47
2019-02-26T06:29:22.267Z,38.49
2019-02-26T06:29:58.163Z,38.51
2019-02-26T06:30:35.197Z,38.46
2019-02-26T06:31:22.096Z,38.49
2019-02-26T06:32:09.628Z,38.47
2019-02-26T06:32:47.141Z,38.37
2019-02-26T06:33:23.626Z,38.40
2019-02-26T06:34:03.523Z,38.41
2019-02-26T06:34:38.120Z,38.38
2019-02-26T06:35:17.037Z,38.40
2019-02-26T06:35:59.015Z,38.42
2019-02-26T06:36:36.316Z,38.44
2019-02-26T06:37:23.430Z,38.45
2019-02-26T06:38:02.125Z,38.39
2019-02-26T06:38:42.847Z,38.18
2019-02-26T06:39:22.244Z,38.03
2019-02-26T06:40:02.486Z,37.92
2019-02-26T06:40:39.315Z,37.85
2019-02-26T06:41:16.366Z,37.85
2019-02-26T06:41:57.606Z,37.76
2019-02-26T06:42:37.942Z,37.63
2019-02-26T06:43:39.619Z,37.56
2019-02-26T06:44:14.194Z,37.64
2019-02-26T06:44:51.419Z,37.69
2019-02-26T06:45:27.914Z,37.74
2019-02-26T06:46:05.363Z,37.74
2019-02-26T06:46:42.439Z,37.79
2019-02-26T06:47:18.921Z,37.80
2019-02-26T06:47:56.410Z,37.84
2019-02-26T06:48:33.072Z,37.88
2019-02-26T06:49:09.214Z,37.90
2019-02-26T06:49:46.145Z,37.88
2019-02-26T06:50:23.684Z,37.84
2019-02-26T06:51:02.689Z,37.79
2019-02-26T06:51:44.984Z,37.70
2019-02-26T06:52:23.056Z,37.66
2019-02-26T06:52:59.399Z,37.72
2019-02-26T06:53:35.711Z,37.72
2019-02-26T06:54:19.631Z,37.66
2019-02-26T06:54:58.091Z,37.59
2019-02-26T06:55:41.663Z,37.51
2019-02-26T06:56:18.385Z,37.43
2019-02-26T06:56:55.476Z,37.28
2019-02-26T06:57:31.780Z,37.29
2019-02-26T06:58:31.520Z,37.29
2019-02-26T06:59:34.477Z,37.21
2019-02-26T07:00:21.248Z,37.03
2019-02-26T07:00:58.087Z,36.86
2019-02-26T07:01:39.640Z,36.69
2019-02-26T07:02:17.093Z,36.65
2019-02-26T07:03:02.645Z,36.54
2019-02-26T07:03:44.386Z,36.60
2019-02-26T07:04:29.406Z,36.65
2019-02-26T07:05:05.330Z,36.62
2019-02-26T07:06:27.719Z,36.55
2019-02-26T07:07:06.814Z,36.57
2019-02-26T07:07:45.539Z,36.54
2019-02-26T07:08:24.188Z,36.49
2019-02-26T07:09:02.279Z,36.40
2019-02-26T07:09:41.934Z,36.39
2019-02-26T07:10:26.007Z,36.34
2019-02-26T07:11:03.926Z,36.16
2019-02-26T07:11:43.048Z,36.08
2019-02-26T07:12:23.936Z,36.08
2019-02-26T07:13:08.853Z,36.07
2019-02-26T07:13:45.990Z,35.99
2019-02-26T07:14:27.202Z,35.89
2019-02-26T07:15:05.975Z,35.88
2019-02-26T07:16:05.297Z,35.83
2019-02-26T07:16:41.623Z,35.85
2019-02-26T07:17:21.096Z,35.91
2019-02-26T07:18:02.238Z,35.89
2019-02-26T07:18:41.237Z,35.82
2019-02-26T07:19:18.168Z,35.83
2019-02-26T07:19:55.923Z,35.92
2019-02-26T07:20:34.332Z,36.01
2019-02-26T07:21:13.617Z,36.13
2019-02-26T07:21:52.974Z,36.17
2019-02-26T07:22:51.609Z,36.24
2019-02-26T07:23:29.808Z,36.30
2019-02-26T07:24:07.703Z,36.40
2019-02-26T07:24:48.299Z,36.48
2019-02-26T07:25:28.233Z,36.45
2019-02-26T07:26:04.799Z,36.40
2019-02-26T07:26:46.377Z,36.31
2019-02-26T07:27:26.484Z,36.28
2019-02-26T07:28:06.750Z,36.23
2019-02-26T07:28:48.717Z,36.25
2019-02-26T07:29:39.462Z,36.16
2019-02-26T07:30:16.094Z,36.10
2019-02-26T07:30:57.042Z,36.06
2019-02-26T07:31:44.001Z,36.05
2019-02-26T07:32:28.417Z,35.97
2019-02-26T07:33:05.357Z,35.96
2019-02-26T07:33:44.942Z,35.93
2019-02-26T07:34:22.788Z,35.91
2019-02-26T07:35:24.409Z,35.87
2019-02-26T07:36:04.123Z,35.84
2019-02-26T07:36:43.267Z,35.82
2019-02-26T07:37:22.649Z,35.85
2019-02-26T07:38:01.736Z,35.88
2019-02-26T07:38:41.565Z,35.82
2019-02-26T07:39:32.358Z,35.75
2019-02-26T07:40:15.238Z,35.74
2019-02-26T07:40:51.070Z,35.68
2019-02-26T07:41:34.544Z,35.61
2019-02-26T07:42:11.504Z,35.59
2019-02-26T07:42:49.984Z,35.59
2019-02-26T07:43:28.808Z,35.51
2019-02-26T07:44:11.464Z,35.59
2019-02-26T07:44:46.554Z,35.53
2019-02-26T07:45:30.390Z,35.49
2019-02-26T07:46:12.142Z,35.47
2019-02-26T07:46:48.581Z,35.54
2019-02-26T07:47:29.394Z,35.65
2019-02-26T07:48:05.983Z,35.76
2019-02-26T07:48:42.743Z,35.84
2019-02-26T07:49:19.996Z,35.91
2019-02-26T07:49:58.891Z,35.95
2019-02-26T07:50:40.274Z,35.98
2019-02-26T07:51:20.462Z,36.06
2019-02-26T07:52:03.895Z,36.12
2019-02-26T07:52:43.758Z,36.16
2019-02-26T07:53:22.174Z,36.24
2019-02-26T07:54:00.841Z,36.31
2019-02-26T07:54:40.482Z,36.31
2019-02-26T07:55:17.445Z,36.33
2019-02-26T07:55:56.848Z,36.38
2019-02-26T07:56:34.491Z,36.44
2019-02-26T07:57:11.145Z,36.48
2019-02-26T07:57:50.703Z,36.57
2019-02-26T07:58:30.891Z,36.62
2019-02-26T07:59:09.814Z,36.67
2019-02-26T07:59:50.142Z,36.74
2019-02-26T08:00:30.550Z,36.76
2019-02-26T08:01:07.240Z,36.83
2019-02-26T08:01:45.315Z,36.86
2019-02-26T08:02:26.066Z,36.89
2019-02-26T08:03:24.803Z,36.91
2019-02-26T08:04:02.389Z,36.99
2019-02-26T08:04:39.485Z,37.06
2019-02-26T08:05:21.211Z,37.11
2019-02-26T08:05:59.300Z,37.17
2019-02-26T08:06:36.176Z,37.23
2019-02-26T08:07:13.625Z,37.26
2019-02-26T08:07:51.978Z,37.27
2019-02-26T08:08:27.928Z,37.28
2019-02-26T08:09:08.720Z,37.22
2019-02-26T08:09:43.970Z,37.18
2019-02-26T08:10:20.511Z,37.15
2019-02-26T08:11:00.578Z,37.14
2019-02-26T08:11:57.665Z,37.12
2019-02-26T08:12:35.573Z,37.11
2019-02-26T08:13:12.191Z,37.07
2019-02-26T08:13:54.222Z,37.10
2019-02-26T08:14:30.654Z,37.15
2019-02-26T08:15:10.406Z,37.20
2019-02-26T08:15:49.343Z,37.21
2019-02-26T08:16:51.407Z,37.14
2019-02-26T08:17:31.015Z,37.11
2019-02-26T08:18:07.799Z,37.06
2019-02-26T08:18:47.369Z,37.01
2019-02-26T08:19:29.563Z,37.04
2019-02-26T08:20:10.010Z,37.08
2019-02-26T08:20:45.485Z,37.07
2019-02-26T08:21:22.911Z,37.00
2019-02-26T08:22:04.226Z,36.91
2019-02-26T08:22:41.824Z,36.88
2019-02-26T08:23:21.525Z,36.82
2019-02-26T08:23:57.465Z,36.75
2019-02-26T08:24:37.074Z,36.72
2019-02-26T08:25:15.790Z,36.68
2019-02-26T08:25:52.872Z,36.63
2019-02-26T08:26:30.152Z,36.61
2019-02-26T08:27:08.460Z,36.58
2019-02-26T08:27:49.320Z,36.55
2019-02-26T08:28:25.133Z,36.51
2019-02-26T08:29:02.713Z,36.49
2019-02-26T08:29:39.671Z,36.47
2019-02-26T08:30:21.395Z,36.46
2019-02-26T08:30:59.053Z,36.44
2019-02-26T08:31:36.691Z,36.42
2019-02-26T08:32:18.094Z,36.43
2019-02-26T08:32:56.111Z,36.39
2019-02-26T08:33:32.254Z,36.30
2019-02-26T08:34:15.677Z,36.23
2019-02-26T08:34:53.975Z,36.13
2019-02-26T08:35:31.796Z,36.07
2019-02-26T08:36:09.230Z,36.04
2019-02-26T08:36:49.054Z,36.01
2019-02-26T08:37:27.077Z,35.97
2019-02-26T08:38:05.691Z,35.94
2019-02-26T08:38:42.827Z,35.92
2019-02-26T08:39:19.275Z,35.91
2019-02-26T08:39:58.253Z,35.85
2019-02-26T08:40:37.533Z,35.85
2019-02-26T08:41:13.805Z,35.92
2019-02-26T08:42:08.009Z,35.95
2019-02-26T08:42:44.513Z,36.00
2019-02-26T08:43:23.288Z,36.05
2019-02-26T08:44:01.260Z,36.08
2019-02-26T08:44:41.083Z,36.12
2019-02-26T08:45:25.120Z,36.10
2019-02-26T08:45:59.546Z,36.04
2019-02-26T08:46:42.725Z,36.09
2019-02-26T08:47:21.600Z,36.07
2019-02-26T08:48:00.181Z,35.97
2019-02-26T08:48:36.574Z,35.94
2019-02-26T08:49:13.768Z,35.93
2019-02-26T08:49:51.939Z,35.92
2019-02-26T08:50:33.047Z,35.93
2019-02-26T08:51:09.045Z,35.95
2019-02-26T08:51:45.189Z,35.94
2019-02-26T08:52:29.354Z,35.96
2019-02-26T08:53:05.910Z,36.01
2019-02-26T08:53:44.423Z,36.00
2019-02-26T08:54:26.087Z,36.00
2019-02-26T08:55:01.710Z,35.98
2019-02-26T08:55:38.458Z,35.97
2019-02-26T08:56:16.139Z,36.02
2019-02-26T08:56:55.527Z,36.02
2019-02-26T08:57:34.646Z,36.07
2019-02-26T08:58:12.551Z,36.11
2019-02-26T08:58:49.506Z,36.14
2019-02-26T08:59:25.923Z,36.14
2019-02-26T09:00:03.050Z,36.15
2019-02-26T09:00:43.059Z,36.14
2019-02-26T09:01:26.995Z,36.16
2019-02-26T09:02:07.334Z,36.16
2019-02-26T09:02:46.006Z,36.20
2019-02-26T09:03:23.052Z,36.23
2019-02-26T09:04:00.897Z,36.25
2019-02-26T09:04:38.326Z,36.27
2019-02-26T09:05:19.397Z,36.22
2019-02-26T09:06:10.871Z,36.26
2019-02-26T09:06:36.912Z,36.26
2019-02-26T09:07:16.468Z,36.26
2019-02-26T09:07:52.751Z,36.24
2019-02-26T09:08:32.670Z,36.25
2019-02-26T09:09:16.018Z,36.24
2019-02-26T09:09:54.848Z,36.19
2019-02-26T09:10:31.124Z,36.17
2019-02-26T09:11:08.636Z,36.14
2019-02-26T09:11:50.153Z,36.13
2019-02-26T09:12:27.637Z,36.14
2019-02-26T09:13:06.152Z,36.11
2019-02-26T09:13:44.018Z,36.07